sensor_id;sensor_type;location;lat;lon;timestamp;temperature;humidity
25112;DHT22;13092;51.996;4.458;2023-02-15T00:01:05;5.10;99.90
25112;DHT22;13092;51.996;4.458;2023-02-15T00:03:34;5.00;99.90
25112;DHT22;13092;51.996;4.458;2023-02-15T00:06:04;5.00;99.90
25112;DHT22;13092;51.996;4.458;2023-02-15T00:08:33;5.10;99.90
25112;DHT22;13092;51.996;4.458;2023-02-15T00:11:06;5.10;99.90
25112;DHT22;13092;51.996;4.458;2023-02-15T00:13:34;4.70;99.90
25112;DHT22;13092;51.996;4.458;2023-02-15T00:16:06;4.90;99.90
25112;DHT22;13092;51.996;4.458;2023-02-15T00:18:36;4.90;99.90
25112;DHT22;13092;51.996;4.458;2023-02-15T00:21:08;4.90;99.90
25112;DHT22;13092;51.996;4.458;2023-02-15T00:23:37;4.80;99.90
25112;DHT22;13092;51.996;4.458;2023-02-15T00:26:06;4.70;99.90
25112;DHT22;13092;51.996;4.458;2023-02-15T00:28:34;4.50;99.90
25112;DHT22;13092;51.996;4.458;2023-02-15T00:31:04;4.70;99.90
25112;DHT22;13092;51.996;4.458;2023-02-15T00:33:33;4.70;99.90
25112;DHT22;13092;51.996;4.458;2023-02-15T00:36:01;4.70;99.90
25112;DHT22;13092;51.996;4.458;2023-02-15T00:38:32;4.90;99.90
25112;DHT22;13092;51.996;4.458;2023-02-15T00:41:03;4.70;99.90
25112;DHT22;13092;51.996;4.458;2023-02-15T00:43:32;4.70;99.90
25112;DHT22;13092;51.996;4.458;2023-02-15T00:46:01;4.70;99.90
25112;DHT22;13092;51.996;4.458;2023-02-15T00:48:30;4.60;99.90
25112;DHT22;13092;51.996;4.458;2023-02-15T00:50:59;4.60;99.90
25112;DHT22;13092;51.996;4.458;2023-02-15T00:53:28;4.50;99.90
25112;DHT22;13092;51.996;4.458;2023-02-15T00:55:58;4.50;99.90
25112;DHT22;13092;51.996;4.458;2023-02-15T00:58:27;4.40;99.90
25112;DHT22;13092;51.996;4.458;2023-02-15T01:00:55;4.40;99.90
25112;DHT22;13092;51.996;4.458;2023-02-15T01:03:29;4.40;99.90
25112;DHT22;13092;51.996;4.458;2023-02-15T01:05:58;4.40;99.90
25112;DHT22;13092;51.996;4.458;2023-02-15T01:08:27;4.60;99.90
25112;DHT22;13092;51.996;4.458;2023-02-15T01:10:55;4.40;99.90
25112;DHT22;13092;51.996;4.458;2023-02-15T01:13:24;4.40;99.90
25112;DHT22;13092;51.996;4.458;2023-02-15T01:15:53;4.70;99.90
25112;DHT22;13092;51.996;4.458;2023-02-15T01:18:22;4.50;99.90
25112;DHT22;13092;51.996;4.458;2023-02-15T01:20:51;4.40;99.90
25112;DHT22;13092;51.996;4.458;2023-02-15T01:23:19;4.40;99.90
25112;DHT22;13092;51.996;4.458;2023-02-15T01:25:48;4.40;99.90
25112;DHT22;13092;51.996;4.458;2023-02-15T01:28:16;4.40;99.90
25112;DHT22;13092;51.996;4.458;2023-02-15T01:30:45;4.50;99.90
25112;DHT22;13092;51.996;4.458;2023-02-15T01:33:13;4.50;99.90
25112;DHT22;13092;51.996;4.458;2023-02-15T01:35:44;4.30;99.90
25112;DHT22;13092;51.996;4.458;2023-02-15T01:38:13;4.30;99.90
25112;DHT22;13092;51.996;4.458;2023-02-15T01:40:41;4.20;99.90
25112;DHT22;13092;51.996;4.458;2023-02-15T01:43:11;4.20;99.90
25112;DHT22;13092;51.996;4.458;2023-02-15T01:45:39;4.20;99.90
25112;DHT22;13092;51.996;4.458;2023-02-15T01:48:19;4.20;99.90
25112;DHT22;13092;51.996;4.458;2023-02-15T01:50:51;4.30;99.90
25112;DHT22;13092;51.996;4.458;2023-02-15T01:53:24;4.10;99.90
25112;DHT22;13092;51.996;4.458;2023-02-15T01:55:55;4.10;99.90
25112;DHT22;13092;51.996;4.458;2023-02-15T01:58:27;4.10;99.90
25112;DHT22;13092;51.996;4.458;2023-02-15T02:00:59;4.10;99.90
25112;DHT22;13092;51.996;4.458;2023-02-15T02:03:36;4.10;99.90
25112;DHT22;13092;51.996;4.458;2023-02-15T02:06:06;5.00;99.90
25112;DHT22;13092;51.996;4.458;2023-02-15T02:08:35;4.10;99.90
25112;DHT22;13092;51.996;4.458;2023-02-15T02:11:09;3.80;99.90
25112;DHT22;13092;51.996;4.458;2023-02-15T02:13:38;4.80;99.90
25112;DHT22;13092;51.996;4.458;2023-02-15T02:16:12;4.10;99.90
25112;DHT22;13092;51.996;4.458;2023-02-15T02:18:54;4.00;99.90
25112;DHT22;13092;51.996;4.458;2023-02-15T02:21:57;4.20;99.90
25112;DHT22;13092;51.996;4.458;2023-02-15T02:24:47;4.00;99.90
25112;DHT22;13092;51.996;4.458;2023-02-15T02:27:30;3.90;99.90
25112;DHT22;13092;51.996;4.458;2023-02-15T02:36:15;3.80;99.90
25112;DHT22;13092;51.996;4.458;2023-02-15T02:38:53;3.80;99.90
25112;DHT22;13092;51.996;4.458;2023-02-15T02:41:29;3.80;99.90
25112;DHT22;13092;51.996;4.458;2023-02-15T02:44:04;3.70;99.90
25112;DHT22;13092;51.996;4.458;2023-02-15T02:46:40;3.90;99.90
25112;DHT22;13092;51.996;4.458;2023-02-15T02:49:15;3.80;99.90
25112;DHT22;13092;51.996;4.458;2023-02-15T02:51:43;4.20;99.90
25112;DHT22;13092;51.996;4.458;2023-02-15T02:54:11;3.90;99.90
25112;DHT22;13092;51.996;4.458;2023-02-15T02:56:41;4.30;99.90
25112;DHT22;13092;51.996;4.458;2023-02-15T02:59:14;3.50;99.90
25112;DHT22;13092;51.996;4.458;2023-02-15T03:01:48;3.70;99.90
25112;DHT22;13092;51.996;4.458;2023-02-15T03:04:22;3.60;99.90
25112;DHT22;13092;51.996;4.458;2023-02-15T03:06:56;4.20;99.90
25112;DHT22;13092;51.996;4.458;2023-02-15T03:09:28;3.70;99.90
25112;DHT22;13092;51.996;4.458;2023-02-15T03:12:09;3.70;99.90
25112;DHT22;13092;51.996;4.458;2023-02-15T03:14:39;3.60;99.90
25112;DHT22;13092;51.996;4.458;2023-02-15T03:17:09;3.80;99.90
25112;DHT22;13092;51.996;4.458;2023-02-15T03:19:39;3.70;99.90
25112;DHT22;13092;51.996;4.458;2023-02-15T03:22:12;4.20;99.90
25112;DHT22;13092;51.996;4.458;2023-02-15T03:24:47;3.60;99.90
25112;DHT22;13092;51.996;4.458;2023-02-15T03:27:19;3.60;99.90
25112;DHT22;13092;51.996;4.458;2023-02-15T03:29:51;3.60;99.90
25112;DHT22;13092;51.996;4.458;2023-02-15T03:32:21;3.60;99.90
25112;DHT22;13092;51.996;4.458;2023-02-15T03:34:52;3.60;99.90
25112;DHT22;13092;51.996;4.458;2023-02-15T03:37:24;3.60;99.90
25112;DHT22;13092;51.996;4.458;2023-02-15T03:39:56;3.60;99.90
25112;DHT22;13092;51.996;4.458;2023-02-15T03:42:48;3.60;99.90
25112;DHT22;13092;51.996;4.458;2023-02-15T03:45:24;3.50;99.90
25112;DHT22;13092;51.996;4.458;2023-02-15T03:47:54;3.50;99.90
25112;DHT22;13092;51.996;4.458;2023-02-15T03:50:28;3.50;99.90
25112;DHT22;13092;51.996;4.458;2023-02-15T03:53:17;3.70;99.90
25112;DHT22;13092;51.996;4.458;2023-02-15T03:55:48;3.40;99.90
25112;DHT22;13092;51.996;4.458;2023-02-15T03:58:16;3.60;99.90
25112;DHT22;13092;51.996;4.458;2023-02-15T04:01:06;3.40;99.90
25112;DHT22;13092;51.996;4.458;2023-02-15T04:04:02;3.40;99.90
25112;DHT22;13092;51.996;4.458;2023-02-15T04:06:32;3.40;99.90
25112;DHT22;13092;51.996;4.458;2023-02-15T04:09:01;3.40;99.90
25112;DHT22;13092;51.996;4.458;2023-02-15T04:11:47;3.40;99.90
25112;DHT22;13092;51.996;4.458;2023-02-15T04:14:15;3.50;99.90
25112;DHT22;13092;51.996;4.458;2023-02-15T04:16:57;3.40;99.90
25112;DHT22;13092;51.996;4.458;2023-02-15T04:19:25;3.30;99.90
25112;DHT22;13092;51.996;4.458;2023-02-15T04:22:12;3.40;99.90
25112;DHT22;13092;51.996;4.458;2023-02-15T04:24:58;3.30;99.90
25112;DHT22;13092;51.996;4.458;2023-02-15T04:27:41;3.80;99.90
25112;DHT22;13092;51.996;4.458;2023-02-15T04:30:11;3.30;99.90
25112;DHT22;13092;51.996;4.458;2023-02-15T04:32:39;3.30;99.90
25112;DHT22;13092;51.996;4.458;2023-02-15T04:35:08;3.30;99.90
25112;DHT22;13092;51.996;4.458;2023-02-15T04:37:38;3.30;99.90
25112;DHT22;13092;51.996;4.458;2023-02-15T04:40:09;3.30;99.90
25112;DHT22;13092;51.996;4.458;2023-02-15T04:42:38;3.20;99.90
25112;DHT22;13092;51.996;4.458;2023-02-15T04:45:07;3.80;99.90
25112;DHT22;13092;51.996;4.458;2023-02-15T04:47:35;3.20;99.90
25112;DHT22;13092;51.996;4.458;2023-02-15T04:50:04;3.20;99.90
25112;DHT22;13092;51.996;4.458;2023-02-15T04:52:32;3.20;99.90
25112;DHT22;13092;51.996;4.458;2023-02-15T04:55:02;3.20;99.90
25112;DHT22;13092;51.996;4.458;2023-02-15T04:57:30;3.10;99.90
25112;DHT22;13092;51.996;4.458;2023-02-15T04:59:58;3.20;99.90
25112;DHT22;13092;51.996;4.458;2023-02-15T05:02:27;3.20;99.90
25112;DHT22;13092;51.996;4.458;2023-02-15T05:04:55;3.20;99.90
25112;DHT22;13092;51.996;4.458;2023-02-15T05:07:23;3.10;99.90
25112;DHT22;13092;51.996;4.458;2023-02-15T05:09:51;3.10;99.90
25112;DHT22;13092;51.996;4.458;2023-02-15T05:12:21;3.10;99.90
25112;DHT22;13092;51.996;4.458;2023-02-15T05:14:49;3.00;99.90
25112;DHT22;13092;51.996;4.458;2023-02-15T05:17:17;3.00;99.90
25112;DHT22;13092;51.996;4.458;2023-02-15T05:19:45;3.00;99.90
25112;DHT22;13092;51.996;4.458;2023-02-15T05:22:13;3.00;99.90
25112;DHT22;13092;51.996;4.458;2023-02-15T05:24:41;3.50;99.90
25112;DHT22;13092;51.996;4.458;2023-02-15T05:27:28;3.50;99.90
25112;DHT22;13092;51.996;4.458;2023-02-15T05:30:14;3.10;99.90
25112;DHT22;13092;51.996;4.458;2023-02-15T05:32:42;3.00;99.90
25112;DHT22;13092;51.996;4.458;2023-02-15T05:35:14;3.00;99.90
25112;DHT22;13092;51.996;4.458;2023-02-15T05:37:42;3.00;99.90
25112;DHT22;13092;51.996;4.458;2023-02-15T05:40:11;3.00;99.90
25112;DHT22;13092;51.996;4.458;2023-02-15T05:42:40;3.00;99.90
25112;DHT22;13092;51.996;4.458;2023-02-15T05:45:09;3.00;99.90
25112;DHT22;13092;51.996;4.458;2023-02-15T05:47:37;3.00;99.90
25112;DHT22;13092;51.996;4.458;2023-02-15T05:50:06;3.50;99.90
25112;DHT22;13092;51.996;4.458;2023-02-15T05:52:34;3.00;99.90
25112;DHT22;13092;51.996;4.458;2023-02-15T05:55:02;3.10;99.90
25112;DHT22;13092;51.996;4.458;2023-02-15T05:57:31;4.00;99.90
25112;DHT22;13092;51.996;4.458;2023-02-15T06:00:00;3.00;99.90
25112;DHT22;13092;51.996;4.458;2023-02-15T06:02:33;3.00;99.90
25112;DHT22;13092;51.996;4.458;2023-02-15T06:05:02;3.00;99.90
25112;DHT22;13092;51.996;4.458;2023-02-15T06:07:30;3.00;99.90
25112;DHT22;13092;51.996;4.458;2023-02-15T06:09:58;3.00;99.90
25112;DHT22;13092;51.996;4.458;2023-02-15T06:12:26;3.00;99.90
25112;DHT22;13092;51.996;4.458;2023-02-15T06:14:54;3.30;99.90
25112;DHT22;13092;51.996;4.458;2023-02-15T06:17:24;3.10;99.90
25112;DHT22;13092;51.996;4.458;2023-02-15T06:19:52;3.10;99.90
25112;DHT22;13092;51.996;4.458;2023-02-15T06:22:20;3.10;99.90
25112;DHT22;13092;51.996;4.458;2023-02-15T06:24:48;3.10;99.90
25112;DHT22;13092;51.996;4.458;2023-02-15T06:27:16;3.20;99.90
25112;DHT22;13092;51.996;4.458;2023-02-15T06:29:44;3.20;99.90
25112;DHT22;13092;51.996;4.458;2023-02-15T06:32:12;3.20;99.90
25112;DHT22;13092;51.996;4.458;2023-02-15T06:34:42;3.20;99.90
25112;DHT22;13092;51.996;4.458;2023-02-15T06:37:10;2.80;99.90
25112;DHT22;13092;51.996;4.458;2023-02-15T06:39:39;3.10;99.90
25112;DHT22;13092;51.996;4.458;2023-02-15T06:42:07;3.10;99.90
25112;DHT22;13092;51.996;4.458;2023-02-15T06:44:35;3.10;99.90
25112;DHT22;13092;51.996;4.458;2023-02-15T06:47:03;3.10;99.90
25112;DHT22;13092;51.996;4.458;2023-02-15T06:49:31;4.00;99.90
25112;DHT22;13092;51.996;4.458;2023-02-15T06:52:01;3.20;99.90
25112;DHT22;13092;51.996;4.458;2023-02-15T06:54:29;3.20;99.90
25112;DHT22;13092;51.996;4.458;2023-02-15T06:56:57;3.20;99.90
25112;DHT22;13092;51.996;4.458;2023-02-15T06:59:26;3.70;99.90
25112;DHT22;13092;51.996;4.458;2023-02-15T07:01:54;3.70;99.90
25112;DHT22;13092;51.996;4.458;2023-02-15T07:04:22;3.40;99.90
25112;DHT22;13092;51.996;4.458;2023-02-15T07:06:50;3.10;99.90
25112;DHT22;13092;51.996;4.458;2023-02-15T07:09:21;3.10;99.90
25112;DHT22;13092;51.996;4.458;2023-02-15T07:11:50;3.60;99.90
25112;DHT22;13092;51.996;4.458;2023-02-15T07:14:35;3.10;99.90
25112;DHT22;13092;51.996;4.458;2023-02-15T07:17:03;3.10;99.90
25112;DHT22;13092;51.996;4.458;2023-02-15T07:19:44;3.40;99.90
25112;DHT22;13092;51.996;4.458;2023-02-15T07:22:12;3.70;99.90
25112;DHT22;13092;51.996;4.458;2023-02-15T07:24:41;3.60;99.90
25112;DHT22;13092;51.996;4.458;2023-02-15T07:27:09;3.00;99.90
25112;DHT22;13092;51.996;4.458;2023-02-15T07:29:39;4.70;99.90
25112;DHT22;13092;51.996;4.458;2023-02-15T07:32:07;3.40;99.90
25112;DHT22;13092;51.996;4.458;2023-02-15T07:34:35;3.40;99.90
25112;DHT22;13092;51.996;4.458;2023-02-15T07:37:04;3.40;99.90
25112;DHT22;13092;51.996;4.458;2023-02-15T07:39:32;3.50;99.90
25112;DHT22;13092;51.996;4.458;2023-02-15T07:42:01;3.60;99.90
25112;DHT22;13092;51.996;4.458;2023-02-15T07:44:30;4.40;99.90
25112;DHT22;13092;51.996;4.458;2023-02-15T07:46:58;3.70;99.90
25112;DHT22;13092;51.996;4.458;2023-02-15T07:49:26;3.70;99.90
25112;DHT22;13092;51.996;4.458;2023-02-15T07:51:54;4.20;99.90
25112;DHT22;13092;51.996;4.458;2023-02-15T07:54:23;4.00;99.90
25112;DHT22;13092;51.996;4.458;2023-02-15T07:56:51;3.60;99.90
25112;DHT22;13092;51.996;4.458;2023-02-15T07:59:20;3.90;99.90
25112;DHT22;13092;51.996;4.458;2023-02-15T08:01:48;5.00;99.90
25112;DHT22;13092;51.996;4.458;2023-02-15T08:04:16;5.30;99.90
25112;DHT22;13092;51.996;4.458;2023-02-15T08:06:44;4.10;99.90
25112;DHT22;13092;51.996;4.458;2023-02-15T08:09:12;4.30;99.90
25112;DHT22;13092;51.996;4.458;2023-02-15T08:11:41;3.90;99.90
25112;DHT22;13092;51.996;4.458;2023-02-15T08:14:10;4.70;99.90
25112;DHT22;13092;51.996;4.458;2023-02-15T08:16:41;4.20;99.90
25112;DHT22;13092;51.996;4.458;2023-02-15T08:19:11;4.30;99.90
25112;DHT22;13092;51.996;4.458;2023-02-15T08:21:42;4.30;99.90
25112;DHT22;13092;51.996;4.458;2023-02-15T08:24:11;4.40;99.90
25112;DHT22;13092;51.996;4.458;2023-02-15T08:26:40;4.40;99.90
25112;DHT22;13092;51.996;4.458;2023-02-15T08:29:10;4.40;99.90
25112;DHT22;13092;51.996;4.458;2023-02-15T08:31:40;4.50;99.90
25112;DHT22;13092;51.996;4.458;2023-02-15T08:34:10;4.60;99.90
25112;DHT22;13092;51.996;4.458;2023-02-15T08:36:39;4.80;99.90
25112;DHT22;13092;51.996;4.458;2023-02-15T08:39:07;4.40;99.90
25112;DHT22;13092;51.996;4.458;2023-02-15T08:41:37;5.00;99.90
25112;DHT22;13092;51.996;4.458;2023-02-15T08:44:07;4.70;99.90
25112;DHT22;13092;51.996;4.458;2023-02-15T08:46:37;4.50;99.90
25112;DHT22;13092;51.996;4.458;2023-02-15T08:49:07;4.90;99.90
25112;DHT22;13092;51.996;4.458;2023-02-15T08:51:37;5.00;99.90
25112;DHT22;13092;51.996;4.458;2023-02-15T08:54:08;4.90;99.90
25112;DHT22;13092;51.996;4.458;2023-02-15T08:56:39;4.90;99.90
25112;DHT22;13092;51.996;4.458;2023-02-15T08:59:13;5.00;99.90
25112;DHT22;13092;51.996;4.458;2023-02-15T09:01:43;5.00;99.90
25112;DHT22;13092;51.996;4.458;2023-02-15T09:04:13;5.00;99.90
25112;DHT22;13092;51.996;4.458;2023-02-15T09:06:43;5.10;99.90
25112;DHT22;13092;51.996;4.458;2023-02-15T09:09:14;5.20;99.90
25112;DHT22;13092;51.996;4.458;2023-02-15T09:11:45;5.20;99.90
25112;DHT22;13092;51.996;4.458;2023-02-15T09:14:14;5.30;99.90
25112;DHT22;13092;51.996;4.458;2023-02-15T09:16:44;5.30;99.90
25112;DHT22;13092;51.996;4.458;2023-02-15T09:19:16;5.70;99.90
25112;DHT22;13092;51.996;4.458;2023-02-15T09:21:45;5.40;99.90
25112;DHT22;13092;51.996;4.458;2023-02-15T09:24:17;5.50;99.90
25112;DHT22;13092;51.996;4.458;2023-02-15T09:26:46;6.10;99.90
25112;DHT22;13092;51.996;4.458;2023-02-15T09:29:15;5.70;99.90
25112;DHT22;13092;51.996;4.458;2023-02-15T09:31:45;5.80;99.90
25112;DHT22;13092;51.996;4.458;2023-02-15T09:34:17;5.90;99.90
25112;DHT22;13092;51.996;4.458;2023-02-15T09:36:46;5.90;99.90
25112;DHT22;13092;51.996;4.458;2023-02-15T09:39:19;6.10;99.90
25112;DHT22;13092;51.996;4.458;2023-02-15T09:42:05;6.20;99.90
25112;DHT22;13092;51.996;4.458;2023-02-15T09:44:52;6.30;99.90
25112;DHT22;13092;51.996;4.458;2023-02-15T09:50:30;6.60;99.90
25112;DHT22;13092;51.996;4.458;2023-02-15T09:53:20;6.70;99.90
25112;DHT22;13092;51.996;4.458;2023-02-15T09:55:56;7.10;99.90
25112;DHT22;13092;51.996;4.458;2023-02-15T09:58:36;6.90;99.90
25112;DHT22;13092;51.996;4.458;2023-02-15T10:01:12;7.00;99.90
25112;DHT22;13092;51.996;4.458;2023-02-15T10:03:49;7.10;99.90
25112;DHT22;13092;51.996;4.458;2023-02-15T10:06:38;7.20;99.90
25112;DHT22;13092;51.996;4.458;2023-02-15T10:09:25;7.20;99.90
25112;DHT22;13092;51.996;4.458;2023-02-15T10:12:11;7.30;99.90
25112;DHT22;13092;51.996;4.458;2023-02-15T10:15:08;7.30;99.90
25112;DHT22;13092;51.996;4.458;2023-02-15T10:17:49;7.40;99.90
25112;DHT22;13092;51.996;4.458;2023-02-15T10:20:30;7.40;99.90
25112;DHT22;13092;51.996;4.458;2023-02-15T10:23:13;7.50;99.90
25112;DHT22;13092;51.996;4.458;2023-02-15T10:25:46;7.70;99.90
25112;DHT22;13092;51.996;4.458;2023-02-15T10:28:23;7.60;99.90
25112;DHT22;13092;51.996;4.458;2023-02-15T10:30:53;7.70;99.90
25112;DHT22;13092;51.996;4.458;2023-02-15T10:33:37;7.80;99.90
25112;DHT22;13092;51.996;4.458;2023-02-15T10:36:16;7.90;99.90
25112;DHT22;13092;51.996;4.458;2023-02-15T10:38:53;7.90;99.90
25112;DHT22;13092;51.996;4.458;2023-02-15T10:41:34;8.00;99.90
25112;DHT22;13092;51.996;4.458;2023-02-15T10:44:22;8.00;99.90
25112;DHT22;13092;51.996;4.458;2023-02-15T10:47:09;8.20;99.90
25112;DHT22;13092;51.996;4.458;2023-02-15T10:50:01;8.20;99.90
25112;DHT22;13092;51.996;4.458;2023-02-15T10:52:42;8.30;99.90
25112;DHT22;13092;51.996;4.458;2023-02-15T10:55:20;8.40;99.90
25112;DHT22;13092;51.996;4.458;2023-02-15T10:57:54;8.40;99.90
25112;DHT22;13092;51.996;4.458;2023-02-15T11:00:30;8.50;99.90
25112;DHT22;13092;51.996;4.458;2023-02-15T11:03:29;8.60;99.90
25112;DHT22;13092;51.996;4.458;2023-02-15T11:06:04;8.60;99.90
25112;DHT22;13092;51.996;4.458;2023-02-15T11:08:35;8.70;99.90
25112;DHT22;13092;51.996;4.458;2023-02-15T11:11:08;8.80;99.90
25112;DHT22;13092;51.996;4.458;2023-02-15T11:13:39;8.90;99.90
25112;DHT22;13092;51.996;4.458;2023-02-15T11:16:13;8.90;99.90
25112;DHT22;13092;51.996;4.458;2023-02-15T11:18:48;9.00;99.90
25112;DHT22;13092;51.996;4.458;2023-02-15T11:21:21;9.10;99.90
25112;DHT22;13092;51.996;4.458;2023-02-15T11:23:50;9.10;99.90
25112;DHT22;13092;51.996;4.458;2023-02-15T11:26:24;9.20;99.90
25112;DHT22;13092;51.996;4.458;2023-02-15T11:28:58;9.20;99.90
25112;DHT22;13092;51.996;4.458;2023-02-15T11:31:37;9.40;99.90
25112;DHT22;13092;51.996;4.458;2023-02-15T11:34:14;9.30;99.90
25112;DHT22;13092;51.996;4.458;2023-02-15T11:36:46;9.40;99.90
25112;DHT22;13092;51.996;4.458;2023-02-15T11:39:17;9.50;99.90
25112;DHT22;13092;51.996;4.458;2023-02-15T11:41:50;9.50;99.90
25112;DHT22;13092;51.996;4.458;2023-02-15T11:44:23;9.60;99.90
25112;DHT22;13092;51.996;4.458;2023-02-15T11:46:53;9.70;99.90
25112;DHT22;13092;51.996;4.458;2023-02-15T11:49:23;9.80;99.90
25112;DHT22;13092;51.996;4.458;2023-02-15T11:51:53;9.80;99.90
25112;DHT22;13092;51.996;4.458;2023-02-15T11:54:26;9.90;99.90
25112;DHT22;13092;51.996;4.458;2023-02-15T11:56:59;9.90;99.90
25112;DHT22;13092;51.996;4.458;2023-02-15T11:59:32;10.10;99.90
25112;DHT22;13092;51.996;4.458;2023-02-15T12:02:07;10.10;99.90
25112;DHT22;13092;51.996;4.458;2023-02-15T12:04:46;10.20;99.90
25112;DHT22;13092;51.996;4.458;2023-02-15T12:07:20;10.30;99.90
25112;DHT22;13092;51.996;4.458;2023-02-15T12:09:58;10.40;99.90
25112;DHT22;13092;51.996;4.458;2023-02-15T12:12:30;10.40;99.90
25112;DHT22;13092;51.996;4.458;2023-02-15T12:15:00;10.40;99.90
25112;DHT22;13092;51.996;4.458;2023-02-15T12:17:31;10.60;99.90
25112;DHT22;13092;51.996;4.458;2023-02-15T12:20:02;10.70;99.90
25112;DHT22;13092;51.996;4.458;2023-02-15T12:22:33;10.80;99.90
25112;DHT22;13092;51.996;4.458;2023-02-15T12:25:20;11.10;99.90
25112;DHT22;13092;51.996;4.458;2023-02-15T12:27:50;11.00;99.90
25112;DHT22;13092;51.996;4.458;2023-02-15T12:30:21;11.10;99.90
25112;DHT22;13092;51.996;4.458;2023-02-15T12:32:53;11.20;99.90
25112;DHT22;13092;51.996;4.458;2023-02-15T12:35:28;11.30;99.90
25112;DHT22;13092;51.996;4.458;2023-02-15T12:38:01;11.40;99.90
25112;DHT22;13092;51.996;4.458;2023-02-15T12:40:31;11.50;99.90
25112;DHT22;13092;51.996;4.458;2023-02-15T12:43:01;11.50;99.90
25112;DHT22;13092;51.996;4.458;2023-02-15T12:45:36;11.60;99.90
25112;DHT22;13092;51.996;4.458;2023-02-15T12:48:13;11.60;99.90
25112;DHT22;13092;51.996;4.458;2023-02-15T12:50:43;11.80;99.90
25112;DHT22;13092;51.996;4.458;2023-02-15T12:53:15;11.70;99.90
25112;DHT22;13092;51.996;4.458;2023-02-15T12:55:53;11.70;99.90
25112;DHT22;13092;51.996;4.458;2023-02-15T12:58:28;11.80;99.90
25112;DHT22;13092;51.996;4.458;2023-02-15T13:01:18;11.80;99.90
25112;DHT22;13092;51.996;4.458;2023-02-15T13:03:56;11.70;99.90
25112;DHT22;13092;51.996;4.458;2023-02-15T13:06:30;11.70;99.90
25112;DHT22;13092;51.996;4.458;2023-02-15T13:09:06;11.70;99.90
25112;DHT22;13092;51.996;4.458;2023-02-15T13:11:36;11.70;99.90
25112;DHT22;13092;51.996;4.458;2023-02-15T13:14:17;11.70;99.90
25112;DHT22;13092;51.996;4.458;2023-02-15T13:16:47;11.80;99.90
25112;DHT22;13092;51.996;4.458;2023-02-15T13:19:17;11.80;99.90
25112;DHT22;13092;51.996;4.458;2023-02-15T13:21:48;11.80;99.90
25112;DHT22;13092;51.996;4.458;2023-02-15T13:24:20;11.80;99.90
25112;DHT22;13092;51.996;4.458;2023-02-15T13:26:51;11.70;99.90
25112;DHT22;13092;51.996;4.458;2023-02-15T13:29:37;11.70;99.90
25112;DHT22;13092;51.996;4.458;2023-02-15T13:32:12;11.70;99.90
25112;DHT22;13092;51.996;4.458;2023-02-15T13:34:45;11.80;99.90
25112;DHT22;13092;51.996;4.458;2023-02-15T13:37:16;11.80;99.90
25112;DHT22;13092;51.996;4.458;2023-02-15T13:39:50;11.80;99.90
25112;DHT22;13092;51.996;4.458;2023-02-15T13:42:25;11.80;99.90
25112;DHT22;13092;51.996;4.458;2023-02-15T13:45:13;11.80;99.90
25112;DHT22;13092;51.996;4.458;2023-02-15T13:47:54;11.80;99.90
25112;DHT22;13092;51.996;4.458;2023-02-15T13:50:33;11.80;99.90
25112;DHT22;13092;51.996;4.458;2023-02-15T13:53:17;11.70;99.90
25112;DHT22;13092;51.996;4.458;2023-02-15T13:55:51;11.90;99.90
25112;DHT22;13092;51.996;4.458;2023-02-15T13:58:40;11.90;99.90
25112;DHT22;13092;51.996;4.458;2023-02-15T14:01:19;12.00;99.90
25112;DHT22;13092;51.996;4.458;2023-02-15T14:04:14;12.10;99.90
25112;DHT22;13092;51.996;4.458;2023-02-15T14:06:53;12.10;99.90
25112;DHT22;13092;51.996;4.458;2023-02-15T14:09:36;12.20;99.90
25112;DHT22;13092;51.996;4.458;2023-02-15T14:12:21;12.20;99.90
25112;DHT22;13092;51.996;4.458;2023-02-15T14:15:12;12.30;99.90
25112;DHT22;13092;51.996;4.458;2023-02-15T14:17:55;12.40;99.90
25112;DHT22;13092;51.996;4.458;2023-02-15T14:20:39;12.40;99.90
25112;DHT22;13092;51.996;4.458;2023-02-15T14:23:19;12.50;99.90
25112;DHT22;13092;51.996;4.458;2023-02-15T14:26:01;12.50;99.90
25112;DHT22;13092;51.996;4.458;2023-02-15T14:28:37;12.50;99.90
25112;DHT22;13092;51.996;4.458;2023-02-15T14:31:09;12.50;99.90
25112;DHT22;13092;51.996;4.458;2023-02-15T14:33:46;12.50;99.90
25112;DHT22;13092;51.996;4.458;2023-02-15T14:36:19;12.50;99.90
25112;DHT22;13092;51.996;4.458;2023-02-15T14:38:57;12.40;99.90
25112;DHT22;13092;51.996;4.458;2023-02-15T14:41:31;12.40;99.90
25112;DHT22;13092;51.996;4.458;2023-02-15T14:44:11;12.40;99.90
25112;DHT22;13092;51.996;4.458;2023-02-15T14:46:46;12.40;99.90
25112;DHT22;13092;51.996;4.458;2023-02-15T14:49:19;12.40;99.90
25112;DHT22;13092;51.996;4.458;2023-02-15T14:52:01;12.50;99.90
25112;DHT22;13092;51.996;4.458;2023-02-15T14:54:59;12.50;99.90
25112;DHT22;13092;51.996;4.458;2023-02-15T14:57:34;12.30;99.90
25112;DHT22;13092;51.996;4.458;2023-02-15T15:00:36;12.30;99.90
25112;DHT22;13092;51.996;4.458;2023-02-15T15:03:21;12.30;99.90
25112;DHT22;13092;51.996;4.458;2023-02-15T15:05:53;12.30;99.90
25112;DHT22;13092;51.996;4.458;2023-02-15T15:08:31;12.30;99.90
25112;DHT22;13092;51.996;4.458;2023-02-15T15:11:39;12.20;99.90
25112;DHT22;13092;51.996;4.458;2023-02-15T15:14:10;12.20;99.90
25112;DHT22;13092;51.996;4.458;2023-02-15T15:16:51;12.20;99.90
25112;DHT22;13092;51.996;4.458;2023-02-15T15:22:24;12.10;99.90
25112;DHT22;13092;51.996;4.458;2023-02-15T15:24:55;12.10;99.90
25112;DHT22;13092;51.996;4.458;2023-02-15T15:27:42;12.10;99.90
25112;DHT22;13092;51.996;4.458;2023-02-15T15:42:50;12.10;99.90
25112;DHT22;13092;51.996;4.458;2023-02-15T15:48:28;12.10;99.90
25112;DHT22;13092;51.996;4.458;2023-02-15T15:51:01;12.10;99.90
25112;DHT22;13092;51.996;4.458;2023-02-15T15:53:33;12.00;99.90
25112;DHT22;13092;51.996;4.458;2023-02-15T15:56:05;12.00;99.90
25112;DHT22;13092;51.996;4.458;2023-02-15T15:58:34;12.00;99.90
25112;DHT22;13092;51.996;4.458;2023-02-15T16:01:05;11.90;99.90
25112;DHT22;13092;51.996;4.458;2023-02-15T16:03:35;11.90;99.90
25112;DHT22;13092;51.996;4.458;2023-02-15T16:06:12;11.80;99.90
25112;DHT22;13092;51.996;4.458;2023-02-15T16:08:41;11.80;99.90
25112;DHT22;13092;51.996;4.458;2023-02-15T16:11:12;11.80;99.90
25112;DHT22;13092;51.996;4.458;2023-02-15T16:13:42;11.80;99.90
25112;DHT22;13092;51.996;4.458;2023-02-15T16:16:12;11.70;99.90
25112;DHT22;13092;51.996;4.458;2023-02-15T16:18:44;11.70;99.90
25112;DHT22;13092;51.996;4.458;2023-02-15T16:21:18;11.70;99.90
25112;DHT22;13092;51.996;4.458;2023-02-15T16:27:13;11.50;99.90
25112;DHT22;13092;51.996;4.458;2023-02-15T16:29:43;11.50;99.90
25112;DHT22;13092;51.996;4.458;2023-02-15T16:32:17;11.40;99.90
25112;DHT22;13092;51.996;4.458;2023-02-15T16:34:54;11.40;99.90
25112;DHT22;13092;51.996;4.458;2023-02-15T16:37:25;11.30;99.90
25112;DHT22;13092;51.996;4.458;2023-02-15T16:39:54;11.40;99.90
25112;DHT22;13092;51.996;4.458;2023-02-15T16:42:23;11.30;99.90
25112;DHT22;13092;51.996;4.458;2023-02-15T16:44:55;11.30;99.90
25112;DHT22;13092;51.996;4.458;2023-02-15T16:47:29;11.20;99.90
25112;DHT22;13092;51.996;4.458;2023-02-15T16:50:00;11.20;99.90
25112;DHT22;13092;51.996;4.458;2023-02-15T16:52:32;11.20;99.90